Ross, Minnesota
Current Conditions -  °F | °C
As of 9:54 PM on Sunday 23 Nov 2014 (Local Time) from KROX Reporting Station
Overcast Overcast  
Wind Chill:   Ceiling: 800
Heat Index: 21°   Visibility: 10mi
Dew Point: 18°   Wind: 13mph
Humidity: 86%   Direction: 310°NW
Pressure: 29.49"   Gusts: NA
Location:  48.7499°N, 95.6399°W
Report Text: KROX 240354Z AUTO 31011KT 10SM OVC008 M06/M08 A2949 RMK AO2
Loading
Personal Weather Stations






























Interactive Weather Map New forecast layout! Learn more

10-Day Weather Forecast

Advertisements
Track Severe Weather on mobile